createdAt,value
2022-10-03T00:00:11.609Z,0.95
2022-10-03T00:05:34.116Z,0.63
2022-10-03T00:10:47.689Z,0.98
2022-10-03T00:15:55.326Z,0.70
2022-10-03T00:21:17.578Z,0.60
2022-10-03T00:26:30.830Z,1.33
2022-10-03T00:31:44.227Z,1.05
2022-10-03T00:36:50.907Z,1.38
2022-10-03T00:42:19.698Z,0.70
2022-10-03T00:47:52.273Z,0.90
2022-10-03T00:53:09.682Z,0.75
2022-10-03T00:58:33.598Z,0.80
2022-10-03T01:03:47.450Z,0.60
2022-10-03T01:09:22.117Z,0.63
2022-10-03T01:14:34.155Z,0.90
2022-10-03T01:19:57.830Z,0.80
2022-10-03T01:25:00.585Z,0.80
2022-10-03T01:30:21.306Z,0.60
2022-10-03T01:35:31.068Z,0.52
2022-10-03T01:40:33.370Z,0.75
2022-10-03T01:45:47.689Z,0.57
2022-10-03T01:50:52.708Z,0.73
2022-10-03T01:56:00.607Z,0.75
2022-10-03T02:01:09.015Z,1.40
2022-10-03T02:06:18.914Z,0.60
2022-10-03T02:11:29.474Z,0.65
2022-10-03T02:16:37.831Z,1.13
2022-10-03T02:21:48.917Z,0.80
2022-10-03T02:27:18.230Z,0.90
2022-10-03T02:32:49.432Z,0.90
2022-10-03T02:38:14.004Z,1.50
2022-10-03T02:43:45.947Z,1.15
2022-10-03T02:49:29.243Z,0.80
2022-10-03T03:00:12.175Z,1.10
2022-10-03T03:05:31.200Z,0.80
2022-10-03T03:11:03.287Z,1.25
2022-10-03T03:16:44.257Z,0.85
2022-10-03T03:21:54.959Z,0.63
2022-10-03T03:27:28.284Z,0.90
2022-10-03T03:37:41.959Z,1.25
2022-10-03T03:43:11.084Z,1.00
2022-10-03T03:48:29.561Z,1.30
2022-10-03T03:53:51.213Z,0.90
2022-10-03T03:59:00.891Z,1.10
2022-10-03T04:04:14.196Z,1.33
2022-10-03T04:09:51.283Z,0.90
2022-10-03T04:15:21.166Z,0.93
2022-10-03T04:20:49.833Z,0.82
2022-10-03T04:26:05.092Z,1.15
2022-10-03T04:31:22.111Z,0.70
2022-10-03T04:36:47.232Z,0.90
2022-10-03T04:41:53.166Z,0.80
2022-10-03T04:46:57.614Z,0.90
2022-10-03T04:52:02.457Z,0.90
2022-10-03T04:57:07.516Z,0.68
2022-10-03T05:02:19.481Z,0.82
2022-10-03T05:07:28.368Z,0.90
2022-10-03T05:12:35.576Z,0.73
2022-10-03T05:17:46.639Z,1.40
2022-10-03T05:22:54.105Z,1.00
2022-10-03T05:28:00.832Z,1.15
2022-10-03T05:33:09.054Z,2.03
2022-10-03T05:38:34.414Z,1.67
2022-10-03T05:43:58.820Z,2.35
2022-10-03T05:49:11.831Z,1.33
2022-10-03T05:54:46.530Z,2.47
2022-10-03T06:00:10.834Z,3.08
2022-10-03T06:05:31.204Z,2.28
2022-10-03T06:10:59.719Z,2.15
2022-10-03T06:16:03.081Z,2.58
2022-10-03T06:21:27.493Z,2.30
2022-10-03T06:27:06.456Z,2.80
2022-10-03T06:32:25.861Z,3.75
2022-10-03T06:38:00.883Z,2.53
2022-10-03T06:43:32.770Z,1.50
2022-10-03T06:49:17.075Z,1.60
2022-10-03T06:55:09.194Z,1.33
2022-10-03T07:00:20.415Z,2.13
2022-10-03T07:05:55.480Z,1.85
2022-10-03T07:11:14.621Z,1.40
2022-10-03T07:16:50.366Z,1.10
2022-10-03T07:22:39.133Z,1.30
2022-10-03T07:27:53.777Z,1.17
2022-10-03T07:33:39.193Z,1.10
2022-10-03T07:39:00.360Z,0.88
2022-10-03T07:44:29.763Z,1.20
2022-10-03T07:50:05.733Z,1.10
2022-10-03T07:55:26.961Z,1.90
2022-10-03T08:00:27.526Z,1.98
2022-10-03T08:05:50.905Z,3.10
2022-10-03T08:11:12.843Z,1.95
2022-10-03T08:16:28.899Z,1.27
2022-10-03T08:21:39.252Z,1.20
2022-10-03T08:27:04.145Z,1.25
2022-10-03T08:32:33.760Z,1.00
2022-10-03T08:38:00.026Z,0.80
2022-10-03T08:43:31.064Z,0.90
2022-10-03T08:48:59.786Z,0.90
2022-10-03T08:54:25.737Z,1.38
2022-10-03T08:59:52.298Z,0.50
2022-10-03T09:05:29.410Z,0.70
2022-10-03T09:11:15.110Z,0.80
2022-10-03T09:16:42.504Z,0.80
2022-10-03T09:22:17.634Z,0.50
2022-10-03T09:27:31.640Z,0.50
2022-10-03T09:33:26.820Z,1.20
2022-10-03T09:38:58.213Z,0.82
2022-10-03T09:44:22.112Z,0.82
2022-10-03T09:49:45.310Z,0.63
2022-10-03T09:55:02.720Z,0.60
2022-10-03T10:00:17.008Z,0.80
2022-10-03T10:05:52.091Z,0.90
2022-10-03T10:11:18.197Z,0.70
2022-10-03T10:16:45.858Z,0.70
2022-10-03T10:22:08.251Z,1.17
2022-10-03T10:27:43.923Z,1.13
2022-10-03T10:33:14.161Z,1.13
2022-10-03T10:38:28.410Z,1.20
2022-10-03T10:44:10.019Z,2.15
2022-10-03T10:49:57.241Z,1.20
2022-10-03T10:55:58.198Z,1.10
2022-10-03T11:01:23.271Z,0.90
2022-10-03T11:07:11.926Z,0.88
2022-10-03T11:12:45.546Z,1.40
2022-10-03T11:18:25.925Z,0.55
2022-10-03T11:24:15.216Z,0.80
2022-10-03T11:30:06.463Z,0.75
2022-10-03T11:35:45.614Z,0.63
2022-10-03T11:40:58.560Z,0.65
2022-10-03T11:46:17.318Z,0.63
2022-10-03T11:51:21.151Z,0.60
2022-10-03T11:56:28.756Z,1.02
2022-10-03T12:01:45.109Z,0.50
2022-10-03T12:07:18.928Z,0.40
2022-10-03T12:12:28.260Z,0.45
2022-10-03T12:17:34.151Z,0.40
2022-10-03T12:22:46.781Z,0.50
2022-10-03T12:27:58.738Z,0.43
2022-10-03T12:33:14.946Z,0.20
2022-10-03T12:38:35.270Z,0.30
2022-10-03T12:43:48.811Z,0.30
2022-10-03T12:48:59.251Z,0.30
2022-10-03T12:54:09.029Z,0.20
2022-10-03T12:59:16.931Z,0.20
2022-10-03T13:04:31.170Z,0.30
2022-10-03T13:09:47.046Z,0.40
2022-10-03T13:15:43.064Z,0.10
2022-10-03T13:20:56.951Z,0.30
2022-10-03T13:26:10.278Z,0.60
2022-10-03T13:31:18.920Z,0.40
2022-10-03T13:36:24.702Z,0.20
2022-10-03T13:41:32.143Z,0.10
2022-10-03T13:46:45.175Z,0.35
2022-10-03T13:51:53.142Z,0.50
2022-10-03T13:56:59.326Z,0.30
2022-10-03T14:02:09.034Z,0.40
2022-10-03T14:07:19.612Z,0.20
2022-10-03T14:12:50.993Z,0.20
2022-10-03T14:17:58.368Z,0.22
2022-10-03T14:23:14.367Z,0.20
2022-10-03T14:28:21.903Z,0.20
2022-10-03T14:33:30.046Z,0.95
2022-10-03T14:39:05.288Z,0.50
2022-10-03T14:44:13.200Z,0.60
2022-10-03T14:49:48.495Z,0.45
2022-10-03T14:54:44.081Z,0.50
2022-10-03T14:59:43.003Z,0.90
2022-10-03T15:04:42.482Z,0.30
2022-10-03T15:09:50.499Z,0.40
2022-10-03T15:14:58.322Z,0.77
2022-10-03T15:19:59.906Z,0.52
2022-10-03T15:25:07.026Z,0.60
2022-10-03T15:30:07.754Z,0.47
2022-10-03T15:35:08.054Z,0.70
2022-10-03T15:40:20.611Z,0.85
2022-10-03T15:45:26.287Z,1.20
2022-10-03T15:50:27.279Z,5.93
2022-10-03T15:55:34.691Z,3.50
2022-10-03T16:00:37.995Z,1.98
2022-10-03T16:05:38.386Z,1.05
2022-10-03T16:10:43.542Z,0.90
2022-10-03T16:16:04.094Z,0.63
2022-10-03T16:21:05.735Z,1.08
2022-10-03T16:26:08.426Z,0.70
2022-10-03T16:31:14.343Z,1.33
2022-10-03T16:36:19.371Z,0.90
2022-10-03T16:41:24.567Z,0.82
2022-10-03T16:46:25.694Z,1.15
2022-10-03T16:51:28.883Z,0.95
2022-10-03T16:56:34.588Z,1.90
2022-10-03T17:01:38.898Z,1.52
2022-10-03T17:06:40.916Z,0.90
2022-10-03T17:11:43.884Z,0.40
2022-10-03T17:16:51.835Z,0.95
2022-10-03T17:21:55.305Z,0.70
2022-10-03T17:26:58.066Z,0.68
2022-10-03T17:32:03.148Z,0.60
2022-10-03T17:37:16.361Z,0.55
2022-10-03T17:42:32.565Z,0.90
2022-10-03T17:47:40.408Z,0.75
2022-10-03T17:52:43.001Z,0.70
2022-10-03T17:57:49.455Z,1.27
2022-10-03T18:02:56.983Z,0.80
2022-10-03T18:07:58.295Z,0.82
2022-10-03T18:13:02.267Z,0.60
2022-10-03T18:18:17.967Z,0.60
2022-10-03T18:23:50.090Z,0.60
2022-10-03T18:28:51.701Z,1.48
2022-10-03T18:33:56.417Z,0.90
2022-10-03T18:39:02.021Z,0.73
2022-10-03T18:44:04.550Z,0.90
2022-10-03T18:49:32.026Z,0.60
2022-10-03T18:54:39.576Z,0.90
2022-10-03T18:59:53.745Z,1.38
2022-10-03T19:04:58.171Z,0.98
2022-10-03T19:10:28.988Z,0.68
2022-10-03T19:15:44.030Z,0.75
2022-10-03T19:20:47.648Z,0.80
2022-10-03T19:25:52.578Z,0.90
2022-10-03T19:31:02.338Z,0.85
2022-10-03T19:36:05.494Z,0.77
2022-10-03T19:41:14.743Z,1.23
2022-10-03T19:46:27.087Z,1.65
2022-10-03T19:51:27.565Z,1.50
2022-10-03T19:56:28.611Z,1.02
2022-10-03T20:01:29.270Z,0.70
2022-10-03T20:06:30.817Z,1.10
2022-10-03T20:11:42.306Z,0.70
2022-10-03T20:16:47.962Z,1.00
2022-10-03T20:21:53.419Z,1.02
2022-10-03T20:27:04.768Z,0.90
2022-10-03T20:32:06.631Z,0.70
2022-10-03T20:37:25.239Z,0.80
2022-10-03T20:42:30.928Z,0.80
2022-10-03T20:47:58.135Z,0.75
2022-10-03T20:53:00.143Z,1.00
2022-10-03T20:58:11.332Z,0.63
2022-10-03T21:03:20.425Z,0.95
2022-10-03T21:08:22.868Z,1.00
2022-10-03T21:13:25.151Z,1.00
2022-10-03T21:18:27.920Z,1.00
2022-10-03T21:28:30.793Z,0.80
2022-10-03T21:33:35.695Z,1.50
2022-10-03T21:38:36.163Z,1.05
2022-10-03T21:43:44.565Z,0.82
2022-10-03T21:48:58.064Z,1.00
2022-10-03T21:54:25.394Z,1.55
2022-10-03T21:59:44.576Z,0.85
2022-10-03T22:04:49.370Z,0.95
2022-10-03T22:09:50.082Z,1.20
2022-10-03T22:14:56.698Z,1.00
2022-10-03T22:20:12.636Z,1.10
2022-10-03T22:25:26.501Z,1.48
2022-10-03T22:30:25.301Z,1.40
2022-10-03T22:35:42.167Z,1.20
2022-10-03T22:40:42.336Z,1.38
2022-10-03T22:45:45.423Z,1.00
2022-10-03T22:50:46.407Z,1.35
2022-10-03T22:55:49.013Z,1.20
2022-10-03T23:00:53.253Z,1.27
2022-10-03T23:06:16.732Z,1.15
2022-10-03T23:11:22.364Z,0.90
2022-10-03T23:16:44.441Z,1.60
2022-10-03T23:21:49.034Z,1.00
2022-10-03T23:27:14.720Z,1.60
2022-10-03T23:32:13.480Z,1.40
2022-10-03T23:37:43.581Z,1.55
2022-10-03T23:42:44.518Z,3.33
2022-10-03T23:47:52.967Z,2.00
2022-10-03T23:52:56.420Z,1.85
2022-10-03T23:57:55.741Z,1.70
